Time;durP1;ratioP1;P1;durP2;ratioP2;P2;SDS_P1;SDS_P2;PMS_P1;PMS_P2;Temp;Humidity;BMP_temperature;BMP_pressure;BME280_temperature;BME280_humidity;BME280_pressure;Samples;Min_cycle;Max_cycle;Signal;HPM_P1;HPM_P2
2022/03/25 00:00:36;;;;;;;40.03;20.42;;;;;;;;;;4973311;28;93254;-78
2022/03/25 00:03:06;;;;;;;36.92;19.75;;;;;;;;;;4973773;28;92475;-77
2022/03/25 00:12:36;;;;;;;42.78;22.85;;;;;;;;;;4968094;22;93127;-86
2022/03/25 00:15:02;;;;;;;41.35;21.77;;;;;;;;;;4962508;22;94357;-93
2022/03/25 00:17:31;;;;;;;41.40;21.10;;;;;;;;;;4957095;28;99663;-93
2022/03/25 00:19:57;;;;;;;38.25;21.33;;;;;;;;;;4955337;28;99076;-93
2022/03/25 00:22:24;;;;;;;39.10;22.52;;;;;;;;;;4955873;28;96458;-96
2022/03/25 00:24:50;;;;;;;43.55;22.63;;;;;;;;;;4955762;28;93467;-95
2022/03/25 00:27:17;;;;;;;38.38;21.55;;;;;;;;;;4955860;28;96042;-95
2022/03/25 00:29:44;;;;;;;38.78;21.67;;;;;;;;;;4955562;28;96827;-93
2022/03/25 00:32:10;;;;;;;46.40;22.30;;;;;;;;;;4956922;28;92398;-93
2022/03/25 00:34:37;;;;;;;34.13;21.58;;;;;;;;;;4956191;28;93986;-93
2022/03/25 00:37:04;;;;;;;42.45;23.00;;;;;;;;;;4955486;28;97780;-93
2022/03/25 00:39:30;;;;;;;41.80;21.10;;;;;;;;;;4959621;28;93535;-92
2022/03/25 00:41:57;;;;;;;38.58;20.90;;;;;;;;;;4953419;28;98446;-94
2022/03/25 00:44:24;;;;;;;42.33;22.83;;;;;;;;;;4939316;28;92692;-93
2022/03/25 00:46:51;;;;;;;41.45;22.98;;;;;;;;;;4971211;28;93280;-93
2022/03/25 00:49:18;;;;;;;43.00;22.13;;;;;;;;;;4974670;28;97377;-93
2022/03/25 00:51:46;;;;;;;48.47;23.05;;;;;;;;;;4974893;28;92424;-92
2022/03/25 00:54:15;;;;;;;50.47;24.70;;;;;;;;;;4968001;28;96192;-94
2022/03/25 00:56:42;;;;;;;41.33;22.80;;;;;;;;;;4955192;28;97092;-93
2022/03/25 00:59:09;;;;;;;42.03;23.15;;;;;;;;;;4955770;28;92856;-93
2022/03/25 01:01:37;;;;;;;44.70;22.65;;;;;;;;;;4959194;28;94793;-93
2022/03/25 01:04:04;;;;;;;44.30;23.00;;;;;;;;;;4954920;28;94591;-93
2022/03/25 01:06:31;;;;;;;50.70;23.77;;;;;;;;;;4953278;28;96648;-94
2022/03/25 01:08:57;;;;;;;48.95;25.65;;;;;;;;;;4955855;28;95297;-93
2022/03/25 01:11:24;;;;;;;48.30;24.02;;;;;;;;;;4955198;28;92403;-96
2022/03/25 01:13:50;;;;;;;48.42;25.08;;;;;;;;;;4953917;28;93291;-95
2022/03/25 01:16:17;;;;;;;48.83;24.38;;;;;;;;;;4954344;28;94706;-95
2022/03/25 01:18:43;;;;;;;46.88;26.02;;;;;;;;;;4955014;28;92410;-94
2022/03/25 01:21:10;;;;;;;42.10;25.50;;;;;;;;;;4955886;28;97323;-92
2022/03/25 01:23:36;;;;;;;42.40;26.10;;;;;;;;;;4958139;28;94221;-93
2022/03/25 01:26:03;;;;;;;49.28;26.83;;;;;;;;;;4954917;28;96653;-92
2022/03/25 01:28:34;;;;;;;48.17;27.45;;;;;;;;;;4955904;28;96933;-93
2022/03/25 01:31:01;;;;;;;43.83;25.90;;;;;;;;;;4953447;28;95040;-96
2022/03/25 01:33:28;;;;;;;51.42;25.65;;;;;;;;;;4954729;28;98194;-95
2022/03/25 01:35:55;;;;;;;55.95;25.80;;;;;;;;;;4954956;28;97184;-95
2022/03/25 01:38:22;;;;;;;45.95;24.92;;;;;;;;;;4955724;28;94031;-95
2022/03/25 01:40:49;;;;;;;52.20;27.77;;;;;;;;;;4954716;28;96997;-93
2022/03/25 01:43:15;;;;;;;55.13;28.73;;;;;;;;;;4954817;28;94144;-94
2022/03/25 01:45:42;;;;;;;45.75;27.98;;;;;;;;;;4964048;28;93626;-92
2022/03/25 01:48:09;;;;;;;54.28;27.48;;;;;;;;;;4974248;28;95713;-94
2022/03/25 01:50:37;;;;;;;47.33;27.23;;;;;;;;;;4974007;28;94074;-93
2022/03/25 01:53:08;;;;;;;44.10;26.95;;;;;;;;;;4974164;28;95576;-95
2022/03/25 01:55:38;;;;;;;51.03;27.30;;;;;;;;;;4972832;28;98526;-95
2022/03/25 01:58:05;;;;;;;59.65;29.67;;;;;;;;;;4974345;28;93250;-95
2022/03/25 02:00:33;;;;;;;46.33;28.48;;;;;;;;;;4973799;28;96256;-95
2022/03/25 02:03:00;;;;;;;49.55;28.33;;;;;;;;;;4974205;28;95492;-95
2022/03/25 02:05:27;;;;;;;49.45;27.20;;;;;;;;;;4977676;28;93270;-95
2022/03/25 02:07:53;;;;;;;50.67;27.98;;;;;;;;;;4973804;28;94561;-95
2022/03/25 02:10:20;;;;;;;45.67;25.17;;;;;;;;;;4974307;28;92494;-95
2022/03/25 02:12:46;;;;;;;52.40;26.40;;;;;;;;;;4974879;28;95402;-92
2022/03/25 02:15:13;;;;;;;46.53;26.77;;;;;;;;;;4973351;28;95735;-95
2022/03/25 02:17:39;;;;;;;47.03;26.55;;;;;;;;;;4973799;28;93479;-94
2022/03/25 02:20:08;;;;;;;53.08;28.50;;;;;;;;;;4972685;28;97375;-94
2022/03/25 02:22:39;;;;;;;55.67;32.35;;;;;;;;;;4973779;28;94923;-95
2022/03/25 02:25:10;;;;;;;53.75;31.42;;;;;;;;;;4976391;28;93808;-95
2022/03/25 02:27:37;;;;;;;56.85;31.65;;;;;;;;;;4980977;28;96653;-95
2022/03/25 02:30:06;;;;;;;58.10;32.47;;;;;;;;;;4977087;28;93638;-95
2022/03/25 02:32:33;;;;;;;53.97;30.98;;;;;;;;;;4977516;28;97353;-95
2022/03/25 02:34:59;;;;;;;54.33;29.90;;;;;;;;;;4977710;28;95251;-95
2022/03/25 02:37:26;;;;;;;56.03;33.15;;;;;;;;;;4978036;28;92223;-95
2022/03/25 02:39:53;;;;;;;55.70;32.28;;;;;;;;;;4976559;28;96119;-95
2022/03/25 02:42:20;;;;;;;60.47;33.60;;;;;;;;;;4976840;28;97492;-96
2022/03/25 02:44:47;;;;;;;57.25;31.98;;;;;;;;;;4975454;28;95177;-95
2022/03/25 02:47:14;;;;;;;70.65;34.75;;;;;;;;;;4977424;28;99318;-95
2022/03/25 02:49:41;;;;;;;64.70;34.35;;;;;;;;;;4980017;28;96024;-95
2022/03/25 02:52:07;;;;;;;64.45;33.55;;;;;;;;;;4977959;28;96734;-94
2022/03/25 02:54:34;;;;;;;63.80;32.97;;;;;;;;;;4976393;28;96435;-95
2022/03/25 02:57:00;;;;;;;59.72;33.50;;;;;;;;;;4961977;28;93919;-95
2022/03/25 02:59:29;;;;;;;69.95;37.22;;;;;;;;;;4957798;28;95686;-95
2022/03/25 03:01:56;;;;;;;65.13;35.60;;;;;;;;;;4957415;28;96543;-94
2022/03/25 03:04:23;;;;;;;63.83;34.33;;;;;;;;;;4956709;28;94436;-95
2022/03/25 03:06:49;;;;;;;67.88;35.70;;;;;;;;;;4957136;28;96340;-95
2022/03/25 03:09:16;;;;;;;62.00;35.58;;;;;;;;;;4955535;28;98819;-95
2022/03/25 03:11:43;;;;;;;66.32;35.45;;;;;;;;;;4959958;28;93989;-92
2022/03/25 03:14:09;;;;;;;67.80;37.60;;;;;;;;;;4956825;28;96023;-96
2022/03/25 03:16:36;;;;;;;67.40;38.03;;;;;;;;;;4956300;28;93079;-95
2022/03/25 03:19:07;;;;;;;64.45;36.58;;;;;;;;;;4956754;28;96462;-95
2022/03/25 03:21:34;;;;;;;62.00;35.40;;;;;;;;;;4957214;28;95869;-95
2022/03/25 03:24:00;;;;;;;65.97;35.97;;;;;;;;;;4956894;28;93158;-94
2022/03/25 03:26:27;;;;;;;66.05;37.72;;;;;;;;;;4957047;28;92213;-95
2022/03/25 03:28:53;;;;;;;67.07;38.22;;;;;;;;;;4956787;28;97529;-94
2022/03/25 03:31:20;;;;;;;68.90;38.03;;;;;;;;;;4956841;28;92546;-94
2022/03/25 03:33:47;;;;;;;68.78;38.88;;;;;;;;;;4957868;28;97227;-95
2022/03/25 03:36:13;;;;;;;72.28;38.88;;;;;;;;;;4955900;28;94292;-94
2022/03/25 03:38:40;;;;;;;71.38;38.90;;;;;;;;;;4956678;28;95374;-93
2022/03/25 03:41:10;;;;;;;75.88;42.05;;;;;;;;;;4955948;28;97373;-96
2022/03/25 03:43:36;;;;;;;70.30;39.67;;;;;;;;;;4957380;28;92699;-95
2022/03/25 03:46:03;;;;;;;69.78;39.65;;;;;;;;;;4955854;28;95606;-95
2022/03/25 03:48:31;;;;;;;69.45;40.17;;;;;;;;;;4956320;28;97195;-96
2022/03/25 03:50:57;;;;;;;70.82;40.83;;;;;;;;;;4956670;28;93610;-95
2022/03/25 03:53:24;;;;;;;76.53;43.30;;;;;;;;;;4956141;28;94468;-96
2022/03/25 03:55:50;;;;;;;69.57;40.40;;;;;;;;;;4959258;28;95899;-95
2022/03/25 03:58:17;;;;;;;67.90;38.83;;;;;;;;;;4954554;28;95472;-94
2022/03/25 04:00:43;;;;;;;72.32;39.03;;;;;;;;;;4955685;28;94824;-96
2022/03/25 04:03:12;;;;;;;70.78;39.78;;;;;;;;;;4956373;28;92540;-96
2022/03/25 04:05:38;;;;;;;71.57;39.72;;;;;;;;;;4955711;28;96672;-96
2022/03/25 04:08:08;;;;;;;81.38;44.13;;;;;;;;;;4955843;28;96430;-95
2022/03/25 04:10:35;;;;;;;79.88;45.47;;;;;;;;;;4955851;28;93505;-96
2022/03/25 04:13:01;;;;;;;75.65;43.30;;;;;;;;;;4955964;28;93819;-95
2022/03/25 04:15:28;;;;;;;78.20;42.80;;;;;;;;;;4965351;28;95637;-95
2022/03/25 04:17:55;;;;;;;73.47;42.70;;;;;;;;;;4975730;28;96130;-95
2022/03/25 04:20:22;;;;;;;77.97;42.70;;;;;;;;;;4975368;28;96950;-95
2022/03/25 04:22:48;;;;;;;74.32;43.35;;;;;;;;;;4974018;28;94832;-95
2022/03/25 04:25:15;;;;;;;73.28;42.80;;;;;;;;;;4975402;28;96794;-95
2022/03/25 04:27:45;;;;;;;74.32;42.28;;;;;;;;;;4975645;28;96596;-95
2022/03/25 04:30:12;;;;;;;75.65;42.13;;;;;;;;;;4976344;28;94510;-96
2022/03/25 04:32:39;;;;;;;73.35;42.85;;;;;;;;;;4976286;28;97109;-95
2022/03/25 04:35:06;;;;;;;77.93;42.97;;;;;;;;;;4974966;28;97314;-96
2022/03/25 04:37:32;;;;;;;75.65;44.92;;;;;;;;;;4961554;28;92556;-96
2022/03/25 04:39:58;;;;;;;73.32;43.10;;;;;;;;;;4975474;28;96129;-95
2022/03/25 04:42:25;;;;;;;80.88;42.85;;;;;;;;;;4975210;28;92823;-96
2022/03/25 04:44:53;;;;;;;76.43;43.67;;;;;;;;;;4976410;28;95267;-94
2022/03/25 04:47:19;;;;;;;76.97;41.22;;;;;;;;;;4973214;28;98983;-96
2022/03/25 04:49:45;;;;;;;69.82;41.05;;;;;;;;;;4974044;28;92508;-96
2022/03/25 04:52:12;;;;;;;83.47;43.35;;;;;;;;;;4974986;28;95935;-95
2022/03/25 04:54:38;;;;;;;78.00;43.03;;;;;;;;;;4975452;28;93418;-95
2022/03/25 04:57:05;;;;;;;77.30;43.53;;;;;;;;;;4968973;28;92524;-96
2022/03/25 04:59:31;;;;;;;80.00;44.05;;;;;;;;;;4954744;28;95366;-95
2022/03/25 05:01:58;;;;;;;78.35;44.78;;;;;;;;;;4935343;28;93756;-96
2022/03/25 05:04:25;;;;;;;79.57;43.05;;;;;;;;;;4936091;28;97149;-95
2022/03/25 05:06:51;;;;;;;78.90;44.00;;;;;;;;;;4935411;28;95775;-96
2022/03/25 05:09:18;;;;;;;83.57;44.55;;;;;;;;;;4935466;28;92490;-96
2022/03/25 05:11:46;;;;;;;81.22;44.15;;;;;;;;;;4934249;28;96417;-95
2022/03/25 05:14:14;;;;;;;83.95;44.40;;;;;;;;;;4935641;28;96422;-95
2022/03/25 05:16:44;;;;;;;83.15;45.90;;;;;;;;;;4935620;28;94111;-95
2022/03/25 05:19:10;;;;;;;81.13;42.97;;;;;;;;;;4936939;28;96451;-96
2022/03/25 05:21:37;;;;;;;97.25;44.53;;;;;;;;;;4938522;28;95953;-96
2022/03/25 05:24:04;;;;;;;76.75;43.00;;;;;;;;;;4936611;28;96362;-94
2022/03/25 05:26:30;;;;;;;80.43;43.70;;;;;;;;;;4935952;28;96796;-96
2022/03/25 05:28:57;;;;;;;76.57;42.10;;;;;;;;;;4935957;28;91790;-95
2022/03/25 05:31:23;;;;;;;170.27;45.38;;;;;;;;;;4954555;28;96374;-95
2022/03/25 05:33:50;;;;;;;108.15;44.80;;;;;;;;;;4954726;28;97517;-95
2022/03/25 05:36:16;;;;;;;85.57;43.90;;;;;;;;;;4952944;28;94817;-94
2022/03/25 05:38:43;;;;;;;85.32;44.95;;;;;;;;;;4953461;28;97606;-95
2022/03/25 05:41:09;;;;;;;89.10;44.20;;;;;;;;;;4955681;28;95960;-95
2022/03/25 05:43:36;;;;;;;84.53;44.70;;;;;;;;;;4957720;28;93544;-95
2022/03/25 05:46:03;;;;;;;92.72;43.65;;;;;;;;;;4963685;28;92738;-95
2022/03/25 05:48:30;;;;;;;79.57;42.97;;;;;;;;;;4974221;28;92450;-96
2022/03/25 05:50:56;;;;;;;75.78;43.20;;;;;;;;;;4974532;28;96177;-96
2022/03/25 05:53:23;;;;;;;72.47;40.95;;;;;;;;;;4975101;28;96720;-95
2022/03/25 05:55:49;;;;;;;74.05;44.33;;;;;;;;;;4975855;28;93301;-96
2022/03/25 05:58:16;;;;;;;83.80;46.50;;;;;;;;;;4974463;28;95524;-96
2022/03/25 06:00:42;;;;;;;82.45;45.25;;;;;;;;;;4975982;28;96962;-96
2022/03/25 06:03:10;;;;;;;83.75;46.53;;;;;;;;;;4978929;28;93391;-96
2022/03/25 06:05:36;;;;;;;84.53;46.38;;;;;;;;;;4981385;28;96865;-95
2022/03/25 06:08:03;;;;;;;77.38;45.22;;;;;;;;;;4977520;28;94033;-95
2022/03/25 06:10:32;;;;;;;90.82;46.50;;;;;;;;;;4977804;28;92793;-95
2022/03/25 06:12:59;;;;;;;82.88;47.40;;;;;;;;;;4960942;28;96860;-94
2022/03/25 06:15:26;;;;;;;86.32;47.53;;;;;;;;;;4972245;28;93773;-96
2022/03/25 06:17:52;;;;;;;111.82;49.38;;;;;;;;;;4958467;28;95785;-96
2022/03/25 06:20:20;;;;;;;85.80;48.72;;;;;;;;;;4957676;28;97441;-95
2022/03/25 06:22:49;;;;;;;86.50;48.63;;;;;;;;;;4958805;28;92396;-96
2022/03/25 06:25:16;;;;;;;90.85;47.70;;;;;;;;;;4959544;28;96963;-95
2022/03/25 06:27:49;;;;;;;89.32;49.38;;;;;;;;;;4958166;28;92607;-95
2022/03/25 06:30:16;;;;;;;95.53;49.40;;;;;;;;;;4957946;28;96745;-95
2022/03/25 06:32:42;;;;;;;86.70;50.05;;;;;;;;;;4957963;28;96222;-96
2022/03/25 06:35:09;;;;;;;98.68;50.22;;;;;;;;;;4958239;28;92323;-95
2022/03/25 06:37:36;;;;;;;89.07;49.63;;;;;;;;;;4958461;28;94258;-95
2022/03/25 06:40:07;;;;;;;96.15;50.78;;;;;;;;;;4958355;28;95540;-95
2022/03/25 06:42:34;;;;;;;89.75;49.00;;;;;;;;;;4957722;28;94075;-95
2022/03/25 06:45:07;;;;;;;88.35;52.22;;;;;;;;;;4958709;28;94941;-94
2022/03/25 06:47:34;;;;;;;96.55;54.42;;;;;;;;;;4980153;28;96202;-94
2022/03/25 06:50:04;;;;;;;92.53;52.90;;;;;;;;;;4975047;28;94838;-93
2022/03/25 06:52:30;;;;;;;92.77;53.03;;;;;;;;;;4977409;28;95845;-94
2022/03/25 06:54:57;;;;;;;95.90;55.08;;;;;;;;;;4976239;28;93848;-95
2022/03/25 06:57:30;;;;;;;104.00;57.10;;;;;;;;;;4978485;28;97020;-96
2022/03/25 07:00:05;;;;;;;104.05;55.50;;;;;;;;;;4962709;28;93969;-96
2022/03/25 07:02:53;;;;;;;102.25;55.25;;;;;;;;;;4979300;28;92472;-96
2022/03/25 07:06:00;;;;;;;;;;;;;;;;;;;;;
2022/03/25 07:08:31;;;;;;;107.22;57.65;;;;;;;;;;4980294;28;93178;-96
2022/03/25 07:11:00;;;;;;;105.45;57.92;;;;;;;;;;4980334;28;94143;-96
2022/03/25 07:13:34;;;;;;;105.18;61.05;;;;;;;;;;4978283;28;94904;-95
2022/03/25 07:16:03;;;;;;;108.20;60.75;;;;;;;;;;4975169;28;94784;-96
2022/03/25 07:18:32;;;;;;;106.22;59.28;;;;;;;;;;4977760;28;99204;-96
2022/03/25 07:21:02;;;;;;;106.82;60.75;;;;;;;;;;4977343;28;96220;-96
2022/03/25 07:23:32;;;;;;;109.10;60.63;;;;;;;;;;4977949;28;93449;-96
2022/03/25 07:26:04;;;;;;;107.78;62.78;;;;;;;;;;4977616;28;97009;-96
2022/03/25 07:28:36;;;;;;;117.65;65.57;;;;;;;;;;4977315;28;94008;-95
2022/03/25 07:31:06;;;;;;;112.18;64.15;;;;;;;;;;4978780;28;92340;-96
2022/03/25 07:33:44;;;;;;;108.53;62.58;;;;;;;;;;4980758;28;94951;-96
2022/03/25 07:36:17;;;;;;;;;;;;;;;;;;4977569;28;93081;-96
2022/03/25 07:38:48;;;;;;;115.82;62.30;;;;;;;;;;4978394;28;127327;-96
2022/03/25 07:41:19;;;;;;;110.55;63.00;;;;;;;;;;4975225;28;99299;-95
2022/03/25 07:43:45;;;;;;;109.47;63.75;;;;;;;;;;4977200;28;92401;-96
2022/03/25 07:46:23;;;;;;;107.57;61.28;;;;;;;;;;4978437;28;96235;-96
2022/03/25 07:48:55;;;;;;;110.65;64.22;;;;;;;;;;4977155;28;97066;-96
2022/03/25 07:51:22;;;;;;;108.50;62.72;;;;;;;;;;4977254;28;93788;-96
2022/03/25 07:53:48;;;;;;;102.40;63.00;;;;;;;;;;4960703;28;96457;-96
2022/03/25 07:56:15;;;;;;;111.57;62.88;;;;;;;;;;4979886;28;97582;-95
2022/03/25 07:58:44;;;;;;;107.85;63.30;;;;;;;;;;4977285;28;96338;-95
2022/03/25 08:01:15;;;;;;;101.22;61.85;;;;;;;;;;4976485;28;95627;-95
2022/03/25 08:03:42;;;;;;;105.53;62.47;;;;;;;;;;4976964;28;92786;-94
2022/03/25 08:06:12;;;;;;;103.55;62.10;;;;;;;;;;4974849;28;95939;-95
2022/03/25 08:08:39;;;;;;;105.67;63.37;;;;;;;;;;4976435;28;96817;-96
2022/03/25 08:11:06;;;;;;;97.28;60.20;;;;;;;;;;4976776;28;93349;-95
2022/03/25 08:13:34;;;;;;;95.10;61.00;;;;;;;;;;4976440;28;97163;-96
2022/03/25 08:16:03;;;;;;;102.22;60.40;;;;;;;;;;4975623;28;97386;-95
2022/03/25 08:18:30;;;;;;;97.73;60.07;;;;;;;;;;4978569;28;92429;-94
2022/03/25 08:20:57;;;;;;;99.38;58.58;;;;;;;;;;4977236;28;96525;-96
2022/03/25 08:28:56;;;;;;;101.10;57.35;;;;;;;;;;4977799;28;97499;-96
2022/03/25 08:31:44;;;;;;;92.35;55.30;;;;;;;;;;4974249;28;94849;-96
2022/03/25 08:34:14;;;;;;;97.13;55.20;;;;;;;;;;4976263;28;99437;-96
2022/03/25 08:36:44;;;;;;;93.82;56.33;;;;;;;;;;4975973;28;92980;-94
2022/03/25 08:39:11;;;;;;;87.85;54.33;;;;;;;;;;4979175;28;94022;-96
2022/03/25 08:41:37;;;;;;;88.55;52.80;;;;;;;;;;4975873;28;96022;-95
2022/03/25 08:44:05;;;;;;;100.75;54.75;;;;;;;;;;4976168;28;94374;-95
2022/03/25 08:46:32;;;;;;;99.70;56.35;;;;;;;;;;4975379;28;97650;-95
2022/03/25 08:48:58;;;;;;;94.68;53.45;;;;;;;;;;4976201;28;94743;-95
2022/03/25 08:51:28;;;;;;;99.30;53.63;;;;;;;;;;4975736;28;92431;-95
2022/03/25 08:53:56;;;;;;;92.35;52.58;;;;;;;;;;4977013;28;95531;-96
2022/03/25 08:56:25;;;;;;;86.00;51.38;;;;;;;;;;4975163;28;98087;-95
2022/03/25 08:58:54;;;;;;;86.75;52.08;;;;;;;;;;4975861;28;93738;-94
2022/03/25 09:01:21;;;;;;;82.22;51.28;;;;;;;;;;4978547;28;96653;-95
2022/03/25 09:03:48;;;;;;;79.28;49.25;;;;;;;;;;4975208;28;94065;-96
2022/03/25 09:06:14;;;;;;;85.15;49.95;;;;;;;;;;4975590;28;95722;-96
2022/03/25 09:08:41;;;;;;;79.18;47.58;;;;;;;;;;4976067;28;97234;-95
2022/03/25 09:11:10;;;;;;;82.50;46.08;;;;;;;;;;4975164;28;92464;-96
2022/03/25 09:13:37;;;;;;;81.70;45.83;;;;;;;;;;4975849;28;95095;-95
2022/03/25 09:16:04;;;;;;;71.00;45.85;;;;;;;;;;4974468;28;97093;-94
2022/03/25 09:18:31;;;;;;;68.93;45.28;;;;;;;;;;4975006;28;92753;-95
2022/03/25 09:20:57;;;;;;;69.30;45.60;;;;;;;;;;4974645;28;96137;-94
2022/03/25 09:23:24;;;;;;;74.07;45.67;;;;;;;;;;4977902;28;96294;-95
2022/03/25 09:25:50;;;;;;;61.13;43.05;;;;;;;;;;4975294;28;96597;-94
2022/03/25 09:28:17;;;;;;;66.15;41.42;;;;;;;;;;4974744;28;96337;-95
2022/03/25 09:30:43;;;;;;;53.00;41.17;;;;;;;;;;4975605;28;93758;-94
2022/03/25 09:33:10;;;;;;;57.35;40.65;;;;;;;;;;4974472;28;95827;-95
2022/03/25 09:35:37;;;;;;;61.38;38.75;;;;;;;;;;4973766;28;97024;-94
2022/03/25 09:38:04;;;;;;;64.43;39.80;;;;;;;;;;4974914;28;93961;-95
2022/03/25 09:40:31;;;;;;;60.30;39.85;;;;;;;;;;4975515;28;94489;-95
2022/03/25 09:42:58;;;;;;;54.95;37.63;;;;;;;;;;4974289;28;96904;-96
2022/03/25 09:45:25;;;;;;;57.13;36.45;;;;;;;;;;4975923;28;94985;-95
2022/03/25 09:47:54;;;;;;;49.33;34.75;;;;;;;;;;4957926;28;97561;-95
2022/03/25 09:50:21;;;;;;;48.72;36.03;;;;;;;;;;4975538;28;92465;-95
2022/03/25 09:52:49;;;;;;;48.55;34.50;;;;;;;;;;4975266;28;96599;-95
2022/03/25 09:55:40;;;;;;;54.10;35.00;;;;;;;;;;4974138;28;97236;-95
2022/03/25 09:58:08;;;;;;;46.28;33.08;;;;;;;;;;4973554;28;94588;-96
2022/03/25 10:00:35;;;;;;;46.88;34.00;;;;;;;;;;4973808;28;97149;-95
2022/03/25 10:03:02;;;;;;;41.63;33.15;;;;;;;;;;4975062;28;97246;-95
2022/03/25 10:05:30;;;;;;;40.40;32.55;;;;;;;;;;4973686;28;95011;-94
2022/03/25 10:07:57;;;;;;;48.60;34.58;;;;;;;;;;4976823;28;96923;-95
2022/03/25 10:10:25;;;;;;;43.22;34.90;;;;;;;;;;4971447;28;95813;-95
2022/03/25 10:13:00;;;;;;;49.25;34.67;;;;;;;;;;4974039;28;98248;-96
2022/03/25 10:15:31;;;;;;;43.55;34.10;;;;;;;;;;4973385;28;94080;-94
2022/03/25 10:18:07;;;;;;;42.53;33.67;;;;;;;;;;4973133;28;95553;-95
2022/03/25 10:21:03;;;;;;;45.40;33.85;;;;;;;;;;4974911;28;97746;-95
2022/03/25 10:23:31;;;;;;;44.72;32.63;;;;;;;;;;4972861;28;95406;-95
2022/03/25 10:26:00;;;;;;;44.08;34.45;;;;;;;;;;4972592;28;95551;-95
2022/03/25 10:28:27;;;;;;;43.42;32.70;;;;;;;;;;4976161;28;95192;-95
2022/03/25 10:30:55;;;;;;;41.60;34.28;;;;;;;;;;4973886;28;94393;-95
2022/03/25 10:33:29;;;;;;;44.97;34.50;;;;;;;;;;4972642;28;98564;-95
2022/03/25 10:35:56;;;;;;;38.45;32.88;;;;;;;;;;4971888;28;100431;-95
2022/03/25 10:38:23;;;;;;;44.28;32.63;;;;;;;;;;4972703;28;93878;-95
2022/03/25 10:40:50;;;;;;;42.42;33.45;;;;;;;;;;4972733;28;98462;-96
2022/03/25 10:43:17;;;;;;;51.60;35.28;;;;;;;;;;4973379;28;98055;-95
2022/03/25 10:45:43;;;;;;;44.80;33.40;;;;;;;;;;4972391;28;95505;-95
2022/03/25 10:48:16;;;;;;;48.30;32.83;;;;;;;;;;4975889;28;99578;-95
2022/03/25 10:51:12;;;;;;;45.30;33.30;;;;;;;;;;4978528;28;98407;-96
2022/03/25 10:53:43;;;;;;;48.65;33.75;;;;;;;;;;4976158;28;99192;-95
2022/03/25 10:56:15;;;;;;;44.88;33.08;;;;;;;;;;4975530;28;98935;-96
2022/03/25 10:59:14;;;;;;;47.90;32.03;;;;;;;;;;4975187;28;95478;-95
2022/03/25 11:01:41;;;;;;;40.10;32.30;;;;;;;;;;4974030;28;97467;-95
2022/03/25 11:04:08;;;;;;;45.33;33.63;;;;;;;;;;4974954;28;98550;-95
2022/03/25 11:06:34;;;;;;;41.67;32.08;;;;;;;;;;4974818;28;95958;-95
2022/03/25 11:09:01;;;;;;;41.00;32.30;;;;;;;;;;4975428;28;99067;-96
2022/03/25 11:11:28;;;;;;;47.55;32.13;;;;;;;;;;4975471;28;99644;-96
2022/03/25 11:13:54;;;;;;;39.95;32.30;;;;;;;;;;4977209;28;96152;-95
2022/03/25 11:16:21;;;;;;;43.08;32.40;;;;;;;;;;4973800;28;100496;-96
2022/03/25 11:18:50;;;;;;;40.10;30.73;;;;;;;;;;4974857;28;95399;-95
2022/03/25 11:21:19;;;;;;;41.50;31.20;;;;;;;;;;4975451;28;96019;-96
2022/03/25 11:23:51;;;;;;;36.97;30.15;;;;;;;;;;4974398;28;99164;-96
2022/03/25 11:26:20;;;;;;;41.60;30.90;;;;;;;;;;4972834;28;96817;-95
2022/03/25 11:28:51;;;;;;;48.53;30.25;;;;;;;;;;4974459;28;100057;-96
2022/03/25 11:31:17;;;;;;;52.78;30.20;;;;;;;;;;4974706;28;98752;-96
2022/03/25 11:34:05;;;;;;;39.47;30.25;;;;;;;;;;4975857;28;94758;-95
2022/03/25 11:36:32;;;;;;;38.60;28.17;;;;;;;;;;4977795;28;98421;-96
2022/03/25 11:39:25;;;;;;;50.42;29.70;;;;;;;;;;4974719;28;95478;-94
2022/03/25 11:42:03;;;;;;;39.45;30.38;;;;;;;;;;4974038;28;97151;-95
2022/03/25 11:44:30;;;;;;;46.30;29.95;;;;;;;;;;4975776;28;96528;-96
2022/03/25 11:46:59;;;;;;;38.03;27.75;;;;;;;;;;4975120;28;94301;-95
2022/03/25 11:49:38;;;;;;;37.53;26.63;;;;;;;;;;4974362;28;99451;-94
2022/03/25 11:52:05;;;;;;;;;;;;;;;;;;4973061;28;101619;-95
2022/03/25 11:54:38;;;;;;;32.80;25.45;;;;;;;;;;4975885;28;123142;-96
2022/03/25 11:57:05;;;;;;;48.97;26.85;;;;;;;;;;4974646;28;98485;-96
2022/03/25 11:59:51;;;;;;;37.75;26.65;;;;;;;;;;4977797;28;98017;-95
2022/03/25 12:02:33;;;;;;;34.30;25.73;;;;;;;;;;4976131;28;98317;-95
2022/03/25 12:05:00;;;;;;;36.15;26.77;;;;;;;;;;4974795;28;98487;-95
2022/03/25 12:07:28;;;;;;;35.35;26.38;;;;;;;;;;4974107;28;95390;-95
2022/03/25 12:09:54;;;;;;;35.38;26.83;;;;;;;;;;4976922;28;97523;-95
2022/03/25 12:12:43;;;;;;;39.22;26.13;;;;;;;;;;4976413;28;97974;-94
2022/03/25 12:16:06;;;;;;;33.17;25.83;;;;;;;;;;4973223;28;93610;-95
2022/03/25 12:18:44;;;;;;;37.78;27.95;;;;;;;;;;4967463;28;98268;-95
2022/03/25 12:21:31;;;;;;;34.97;27.60;;;;;;;;;;4974568;28;98557;-96
2022/03/25 12:23:58;;;;;;;37.42;26.25;;;;;;;;;;4978516;28;93514;-96
2022/03/25 12:26:37;;;;;;;45.92;27.75;;;;;;;;;;4975871;28;98463;-95
2022/03/25 12:29:07;;;;;;;42.08;27.98;;;;;;;;;;4974658;28;96428;-95
2022/03/25 12:31:35;;;;;;;40.25;26.90;;;;;;;;;;4974614;28;97734;-95
2022/03/25 12:34:05;;;;;;;33.55;26.50;;;;;;;;;;4975412;28;97130;-95
2022/03/25 12:36:40;;;;;;;40.50;27.10;;;;;;;;;;4976412;28;94278;-94
2022/03/25 12:39:10;;;;;;;49.08;27.50;;;;;;;;;;4975089;28;94201;-95
2022/03/25 12:41:38;;;;;;;37.83;26.33;;;;;;;;;;4974862;28;98098;-96
2022/03/25 12:44:24;;;;;;;35.50;27.35;;;;;;;;;;4976990;28;95369;-94
2022/03/25 12:46:51;;;;;;;44.47;27.65;;;;;;;;;;4974664;28;94320;-95
2022/03/25 12:49:18;;;;;;;40.25;28.45;;;;;;;;;;4975052;28;93997;-94
2022/03/25 12:51:54;;;;;;;41.67;29.13;;;;;;;;;;4974990;28;97513;-95
2022/03/25 12:54:21;;;;;;;42.15;28.30;;;;;;;;;;4975295;28;97413;-96
2022/03/25 12:56:55;;;;;;;41.25;29.25;;;;;;;;;;4975279;28;93500;-95
2022/03/25 12:59:41;;;;;;;38.95;29.35;;;;;;;;;;4975835;28;95774;-96
2022/03/25 13:02:09;;;;;;;46.20;28.73;;;;;;;;;;4975715;28;96662;-95
2022/03/25 13:04:36;;;;;;;39.92;30.08;;;;;;;;;;4976393;28;93928;-95
2022/03/25 13:07:12;;;;;;;51.50;30.85;;;;;;;;;;4977808;28;95940;-95
2022/03/25 13:09:55;;;;;;;55.90;32.28;;;;;;;;;;4973670;28;94851;-95
2022/03/25 13:12:35;;;;;;;42.85;31.02;;;;;;;;;;4974829;28;98280;-94
2022/03/25 13:15:05;;;;;;;45.72;31.65;;;;;;;;;;4975865;28;97261;-94
2022/03/25 13:17:39;;;;;;;42.17;30.52;;;;;;;;;;4975468;28;94028;-96
2022/03/25 13:20:09;;;;;;;51.38;32.75;;;;;;;;;;4975006;28;96836;-95
2022/03/25 13:22:36;;;;;;;57.10;33.55;;;;;;;;;;4975070;28;95957;-94
2022/03/25 13:25:04;;;;;;;46.40;31.77;;;;;;;;;;4975116;28;93200;-95
2022/03/25 13:27:31;;;;;;;56.65;30.73;;;;;;;;;;4975641;28;95945;-94
2022/03/25 13:29:58;;;;;;;48.70;31.60;;;;;;;;;;4978938;28;97322;-94
2022/03/25 13:32:30;;;;;;;47.15;32.22;;;;;;;;;;4976241;28;97579;-94
2022/03/25 13:35:01;;;;;;;45.15;30.90;;;;;;;;;;4973667;28;98168;-95
2022/03/25 13:37:27;;;;;;;49.97;31.05;;;;;;;;;;4975139;28;92405;-95
2022/03/25 13:39:54;;;;;;;52.47;29.85;;;;;;;;;;4976135;28;96496;-94
2022/03/25 13:42:20;;;;;;;48.28;30.42;;;;;;;;;;4975452;28;95896;-94
2022/03/25 13:44:47;;;;;;;52.67;32.17;;;;;;;;;;4976171;28;93675;-95
2022/03/25 13:47:16;;;;;;;50.78;31.50;;;;;;;;;;4975185;28;96057;-94
2022/03/25 13:49:43;;;;;;;50.83;30.27;;;;;;;;;;4975693;28;97341;-94
2022/03/25 13:52:09;;;;;;;52.55;30.85;;;;;;;;;;4979623;28;93884;-93
2022/03/25 13:54:36;;;;;;;50.47;30.08;;;;;;;;;;4974542;28;95973;-94
2022/03/25 13:57:04;;;;;;;52.25;32.88;;;;;;;;;;4958687;28;92802;-94
2022/03/25 13:59:43;;;;;;;50.15;31.38;;;;;;;;;;4973733;28;96932;-95
2022/03/25 14:02:20;;;;;;;51.88;31.30;;;;;;;;;;4975874;28;97074;-96
2022/03/25 14:04:47;;;;;;;50.72;31.23;;;;;;;;;;4974624;28;93503;-93
2022/03/25 14:07:16;;;;;;;53.75;31.25;;;;;;;;;;4974487;28;97446;-95
2022/03/25 14:09:43;;;;;;;55.85;29.38;;;;;;;;;;4974621;28;97169;-94
2022/03/25 14:12:18;;;;;;;46.90;30.17;;;;;;;;;;4975057;28;92618;-96
2022/03/25 14:14:59;;;;;;;46.63;30.55;;;;;;;;;;4978298;28;94649;-94
2022/03/25 14:17:29;;;;;;;49.97;30.73;;;;;;;;;;4975278;28;92784;-94
2022/03/25 14:19:59;;;;;;;55.42;31.80;;;;;;;;;;4974792;28;95842;-94
2022/03/25 14:22:26;;;;;;;54.42;31.38;;;;;;;;;;4977889;28;97200;-94
2022/03/25 14:24:52;;;;;;;63.35;30.98;;;;;;;;;;4977172;28;94814;-95
2022/03/25 14:27:19;;;;;;;51.20;30.77;;;;;;;;;;4977923;28;98200;-94
2022/03/25 14:29:49;;;;;;;57.08;30.98;;;;;;;;;;4977554;28;95960;-95
2022/03/25 14:32:16;;;;;;;53.72;29.58;;;;;;;;;;4978920;28;93249;-95
2022/03/25 14:34:42;;;;;;;55.50;30.00;;;;;;;;;;4977806;28;95854;-95
2022/03/25 14:37:09;;;;;;;44.55;27.80;;;;;;;;;;4981041;28;97216;-94
2022/03/25 14:39:36;;;;;;;41.17;27.15;;;;;;;;;;4979273;28;96887;-95